createdAt,value
2023-09-29T00:02:21.409Z,77.70
2023-09-29T00:07:26.228Z,77.60
2023-09-29T00:12:29.661Z,77.40
2023-09-29T00:17:33.401Z,77.20
2023-09-29T00:22:38.874Z,77.00
2023-09-29T00:27:42.376Z,76.90
2023-09-29T00:32:48.163Z,76.80
2023-09-29T00:37:53.576Z,76.70
2023-09-29T00:42:58.862Z,76.80
2023-09-29T00:48:08.626Z,76.70
2023-09-29T00:53:19.181Z,77.00
2023-09-29T00:58:22.977Z,77.00
2023-09-29T01:03:26.482Z,76.70
2023-09-29T01:08:31.773Z,76.70
2023-09-29T01:13:35.271Z,76.90
2023-09-29T01:18:39.554Z,77.00
2023-09-29T01:23:46.156Z,76.90
2023-09-29T01:28:51.516Z,77.30
2023-09-29T01:33:55.798Z,77.20
2023-09-29T01:39:00.789Z,77.00
2023-09-29T01:44:04.533Z,77.10
2023-09-29T01:49:08.738Z,77.30
2023-09-29T01:54:13.748Z,77.20
2023-09-29T01:59:17.222Z,77.20
2023-09-29T02:04:20.637Z,77.10
2023-09-29T02:09:25.420Z,77.10
2023-09-29T02:14:29.473Z,77.70
2023-09-29T02:19:37.353Z,76.70
2023-09-29T02:24:42.115Z,76.60
2023-09-29T02:29:45.617Z,76.80
2023-09-29T02:34:49.351Z,76.70
2023-09-29T02:39:56.067Z,77.00
2023-09-29T02:44:59.852Z,76.80
2023-09-29T02:50:04.220Z,76.70
2023-09-29T02:55:14.063Z,76.60
2023-09-29T03:00:20.425Z,76.50
2023-09-29T03:05:25.314Z,76.80
2023-09-29T03:10:31.143Z,76.90
2023-09-29T03:15:34.719Z,76.80
2023-09-29T03:20:38.229Z,76.60
2023-09-29T03:25:43.269Z,76.40
2023-09-29T03:30:46.684Z,76.50
2023-09-29T03:35:50.201Z,76.50
2023-09-29T03:40:55.252Z,76.50
2023-09-29T03:45:58.664Z,76.70
2023-09-29T03:51:04.012Z,76.60
2023-09-29T03:56:08.874Z,76.70
2023-09-29T04:01:12.403Z,76.80
2023-09-29T04:06:15.949Z,76.70
2023-09-29T04:11:20.829Z,76.60
2023-09-29T04:16:24.270Z,76.90
2023-09-29T04:21:27.680Z,76.70
2023-09-29T04:26:32.461Z,76.50
2023-09-29T04:31:36.087Z,76.70
2023-09-29T04:36:41.605Z,76.60
2023-09-29T04:41:46.425Z,76.60
2023-09-29T04:46:50.423Z,76.70
2023-09-29T04:51:53.986Z,76.60
2023-09-29T04:56:58.986Z,76.90
2023-09-29T05:02:02.466Z,77.00
2023-09-29T05:07:05.922Z,76.90
2023-09-29T05:12:10.800Z,76.90
2023-09-29T05:17:14.205Z,77.10
2023-09-29T05:22:17.807Z,76.90
2023-09-29T05:27:22.607Z,77.00
2023-09-29T05:32:26.555Z,77.30
2023-09-29T05:37:31.281Z,77.30
2023-09-29T05:42:50.831Z,77.20
2023-09-29T05:47:55.898Z,77.00
2023-09-29T05:53:09.869Z,77.00
2023-09-29T05:58:15.628Z,77.00
2023-09-29T06:03:19.073Z,76.70
2023-09-29T06:08:22.547Z,76.70
2023-09-29T06:13:27.286Z,77.00
2023-09-29T06:18:30.748Z,76.70
2023-09-29T06:23:34.228Z,77.20
2023-09-29T06:28:39.665Z,77.40
2023-09-29T06:33:43.416Z,76.90
2023-09-29T06:38:46.925Z,77.40
2023-09-29T06:43:54.422Z,77.30
2023-09-29T06:48:58.115Z,77.60
2023-09-29T06:54:02.010Z,77.50
2023-09-29T06:59:09.382Z,77.00
2023-09-29T07:04:13.397Z,76.90
2023-09-29T07:09:17.087Z,76.70
2023-09-29T07:14:22.016Z,76.20
2023-09-29T07:19:28.260Z,76.00
2023-09-29T07:24:36.075Z,75.60
2023-09-29T07:29:40.927Z,75.50
2023-09-29T07:34:44.376Z,75.60
2023-09-29T07:39:47.816Z,75.40
2023-09-29T07:44:53.537Z,75.50
2023-09-29T07:49:57.060Z,75.40
2023-09-29T07:55:00.462Z,75.70
2023-09-29T08:00:10.182Z,76.40
2023-09-29T08:05:18.250Z,76.40
2023-09-29T08:10:21.679Z,75.90
2023-09-29T08:15:26.923Z,75.90
2023-09-29T08:20:30.437Z,76.20
2023-09-29T08:25:35.158Z,76.00
2023-09-29T08:30:40.223Z,75.90
2023-09-29T08:35:43.958Z,76.40
2023-09-29T08:40:48.895Z,77.00
2023-09-29T08:45:59.838Z,76.70
2023-09-29T09:02:44.354Z,77.10
2023-09-29T09:07:48.240Z,76.90
2023-09-29T09:12:51.683Z,77.30
2023-09-29T09:17:57.649Z,77.40
2023-09-29T09:23:03.703Z,77.20
2023-09-29T09:28:08.510Z,76.30
2023-09-29T09:33:23.513Z,76.00
2023-09-29T09:38:34.238Z,75.50
2023-09-29T09:43:40.036Z,75.40
2023-09-29T09:48:56.314Z,75.70
2023-09-29T09:54:04.249Z,75.20
2023-09-29T09:59:08.890Z,75.00
2023-09-29T10:04:14.821Z,74.90
2023-09-29T10:09:18.394Z,75.20
2023-09-29T10:14:22.644Z,75.80
2023-09-29T10:19:38.642Z,76.70
2023-09-29T10:24:42.299Z,77.20
2023-09-29T10:29:51.120Z,77.30
2023-09-29T10:35:06.989Z,77.90
2023-09-29T10:40:26.789Z,78.60
2023-09-29T10:45:37.781Z,78.60
2023-09-29T10:50:45.272Z,78.70
2023-09-29T10:55:49.989Z,79.30
2023-09-29T11:00:54.739Z,78.60
2023-09-29T11:06:04.821Z,78.50
2023-09-29T11:11:10.799Z,78.30
2023-09-29T11:16:19.064Z,78.20
2023-09-29T11:21:35.929Z,78.10
2023-09-29T11:26:43.094Z,78.00
2023-09-29T11:31:46.829Z,78.00
2023-09-29T11:36:53.136Z,77.90
2023-09-29T11:41:58.569Z,77.80
2023-09-29T11:47:02.108Z,77.70
2023-09-29T11:52:06.959Z,77.30
2023-09-29T11:57:10.412Z,77.30
2023-09-29T12:02:14.877Z,77.20
2023-09-29T12:07:19.625Z,77.10
2023-09-29T12:12:23.342Z,77.20
2023-09-29T12:17:27.599Z,77.00
2023-09-29T12:22:33.021Z,76.90
2023-09-29T12:27:36.537Z,76.70
2023-09-29T12:32:40.489Z,76.30
2023-09-29T12:37:47.402Z,76.20
2023-09-29T12:42:51.580Z,76.30
2023-09-29T12:47:57.410Z,77.00
2023-09-29T12:53:04.384Z,77.20
2023-09-29T12:58:08.974Z,77.40
2023-09-29T13:03:13.048Z,77.40
2023-09-29T13:08:18.203Z,77.30
2023-09-29T13:13:21.948Z,77.30
2023-09-29T13:18:25.455Z,77.30
2023-09-29T13:23:30.340Z,77.20
2023-09-29T13:28:33.866Z,76.90
2023-09-29T13:33:37.532Z,76.50
2023-09-29T13:38:42.384Z,76.20
2023-09-29T13:43:45.868Z,76.20
2023-09-29T13:48:50.082Z,76.30
2023-09-29T13:53:55.131Z,76.20
2023-09-29T13:59:00.424Z,76.30
2023-09-29T14:04:04.037Z,76.20
2023-09-29T14:09:16.393Z,76.00
2023-09-29T14:14:22.280Z,76.00
2023-09-29T14:19:27.039Z,76.00
2023-09-29T14:24:32.543Z,75.90
2023-09-29T14:29:36.259Z,75.60
2023-09-29T14:34:40.218Z,75.40
2023-09-29T14:39:45.036Z,75.20
2023-09-29T14:44:51.157Z,75.10
2023-09-29T14:49:56.081Z,74.80
2023-09-29T14:55:06.990Z,74.70
2023-09-29T15:00:15.066Z,74.20
2023-09-29T15:05:19.264Z,74.00
2023-09-29T15:10:24.510Z,73.80
2023-09-29T15:15:29.256Z,73.60
2023-09-29T15:20:39.510Z,73.60
2023-09-29T15:25:45.390Z,73.30
2023-09-29T15:30:50.052Z,73.50
2023-09-29T15:35:56.932Z,73.10
2023-09-29T15:41:03.883Z,72.90
2023-09-29T15:46:14.038Z,72.50
2023-09-29T15:51:17.510Z,72.30
2023-09-29T15:56:22.362Z,72.20
2023-09-29T16:01:25.889Z,72.20
2023-09-29T16:06:29.479Z,72.20
2023-09-29T16:11:35.596Z,72.20
2023-09-29T16:16:43.552Z,72.00
2023-09-29T16:21:47.064Z,71.80
2023-09-29T16:26:52.860Z,71.60
2023-09-29T16:31:56.458Z,71.40
2023-09-29T16:37:00.026Z,71.60
2023-09-29T16:42:04.942Z,71.40
2023-09-29T16:47:08.468Z,71.60
2023-09-29T16:52:11.984Z,71.60
2023-09-29T16:57:17.088Z,71.40
2023-09-29T17:02:21.263Z,71.50
2023-09-29T17:07:24.759Z,71.40
2023-09-29T17:12:30.123Z,71.30
2023-09-29T17:17:33.745Z,71.30
2023-09-29T17:22:37.273Z,71.30
2023-09-29T17:27:42.121Z,71.30
2023-09-29T17:32:45.660Z,72.00
2023-09-29T17:37:49.062Z,71.30
2023-09-29T17:42:53.897Z,71.30
2023-09-29T17:48:03.210Z,71.40
2023-09-29T17:53:07.112Z,71.50
2023-09-29T17:58:12.024Z,71.60
2023-09-29T18:03:17.340Z,71.80
2023-09-29T18:08:29.403Z,72.40
2023-09-29T18:13:34.354Z,73.10
2023-09-29T18:18:38.395Z,73.50
2023-09-29T18:30:57.816Z,74.00
2023-09-29T18:36:03.487Z,74.20
2023-09-29T18:41:20.094Z,74.00
2023-09-29T18:46:25.438Z,73.70
2023-09-29T18:51:30.592Z,73.60
2023-09-29T18:56:34.554Z,73.40
2023-09-29T19:01:41.807Z,73.20
2023-09-29T19:06:45.325Z,73.10
2023-09-29T19:11:48.833Z,73.00
2023-09-29T19:16:53.701Z,72.70
2023-09-29T19:21:57.215Z,72.70
2023-09-29T19:27:00.800Z,72.70
2023-09-29T19:32:07.660Z,72.60
2023-09-29T19:38:14.775Z,73.40
2023-09-29T19:43:27.907Z,74.20
2023-09-29T19:48:33.209Z,74.40
2023-09-29T19:59:13.936Z,74.50
2023-09-29T20:04:25.241Z,74.20
2023-09-29T20:09:41.258Z,74.80
2023-09-29T20:14:44.768Z,74.60
2023-09-29T20:19:49.626Z,74.40
2023-09-29T20:24:53.069Z,74.60
2023-09-29T20:29:56.541Z,74.50
2023-09-29T20:35:02.214Z,74.60
2023-09-29T20:40:08.938Z,74.50
2023-09-29T20:45:12.785Z,74.80
2023-09-29T20:57:05.887Z,74.90
2023-09-29T21:02:09.388Z,75.20
2023-09-29T21:07:14.222Z,75.40
2023-09-29T21:12:17.742Z,75.00
2023-09-29T21:17:24.010Z,75.40
2023-09-29T21:22:28.765Z,75.50
2023-09-29T21:27:32.206Z,75.60
2023-09-29T21:32:36.326Z,75.80
2023-09-29T21:37:41.241Z,75.70
2023-09-29T21:42:46.899Z,75.80
2023-09-29T21:47:50.800Z,75.80
2023-09-29T21:52:55.608Z,75.90
2023-09-29T21:57:58.991Z,75.90
2023-09-29T22:03:02.551Z,75.80
2023-09-29T22:08:08.585Z,76.10
2023-09-29T22:13:12.055Z,76.10
2023-09-29T22:18:15.549Z,76.00
2023-09-29T22:23:20.729Z,76.00
2023-09-29T22:28:24.331Z,75.80
2023-09-29T22:33:27.875Z,75.80
2023-09-29T22:38:34.067Z,76.00
2023-09-29T22:43:38.047Z,76.00
2023-09-29T22:48:41.748Z,75.90
2023-09-29T22:53:46.520Z,75.90
2023-09-29T22:58:50.170Z,75.80
2023-09-29T23:03:54.459Z,76.00
2023-09-29T23:08:59.534Z,75.90
2023-09-29T23:14:03.026Z,75.80
2023-09-29T23:19:06.617Z,75.90
2023-09-29T23:24:11.968Z,75.70
2023-09-29T23:29:16.053Z,76.10
2023-09-29T23:34:19.845Z,76.00
2023-09-29T23:39:24.649Z,75.90
2023-09-29T23:44:30.950Z,76.10
2023-09-29T23:49:34.653Z,76.10
2023-09-29T23:54:39.551Z,76.50
2023-09-29T23:59:43.509Z,76.70
